Dannelly, Alabama
Current Conditions -  °F | °C
As of 9:58 PM on Tuesday 25 Nov 2014 (Local Time) from KMXF Reporting Station
Broken Clouds Broken Clouds  
Wind Chill: 51°   Ceiling: 15000
Heat Index: 51°   Visibility: 10mi
Dew Point: 33°   Wind: 10mph
Humidity: 50%   Direction: 310°NW
Pressure: 30.09"   Gusts: NA
Location:  32.3488°N, 86.4016°W
Report Text: KMXF 260358Z AUTO 31009KT 10SM BKN150 11/01 A3009 RMK AO2 SLP192 T01080007
Loading
Personal Weather Stations






























Interactive Weather Map New forecast layout! Learn more

10-Day Weather Forecast

Advertisements
Track Severe Weather on mobile